Time;durP1;ratioP1;P1;durP2;ratioP2;P2;SDS_P1;SDS_P2;PMS_P1;PMS_P2;Temp;Humidity;BMP_temperature;BMP_pressure;BME280_temperature;BME280_humidity;BME280_pressure;Samples;Min_cycle;Max_cycle;Signal;HPM_P1;HPM_P2
2023/08/21 06:26:40;;;;;;;14.93;12.23;;;;;;;27.40;100.00;96785.44;5847779;22;9440403;-84
2023/08/21 10:32:22;;;;;;;10.23;5.75;;;;;;;39.51;55.32;96772.81;6241933;23;20055;-86
2023/08/21 10:34:53;;;;;;;10.57;6.25;;;;;;;40.88;47.62;96765.63;6190318;23;20012;-86
2023/08/21 10:37:18;;;;;;;8.25;5.53;;;;;;;39.80;50.22;96768.44;6190951;23;20028;-86
2023/08/21 10:39:56;;;;;;;11.73;5.82;;;;;;;39.30;53.71;96771.97;6191140;23;20006;-86
2023/08/21 10:42:39;;;;;;;9.30;5.60;;;;;;;39.34;50.75;96767.44;6215387;23;20444;-84
2023/08/21 10:45:13;;;;;;;9.60;5.80;;;;;;;39.63;50.34;96769.31;6214991;23;20014;-86
2023/08/21 10:47:38;;;;;;;9.02;5.75;;;;;;;37.37;57.18;96761.50;6190078;23;20387;-86
2023/08/21 10:50:06;;;;;;;9.90;5.57;;;;;;;38.12;57.50;96765.00;6216062;23;20001;-87
2023/08/21 10:52:44;;;;;;;8.35;6.15;;;;;;;37.04;62.91;96752.88;6191130;23;20325;-87
2023/08/21 10:55:12;;;;;;;7.63;5.55;;;;;;;37.19;63.01;96763.41;6191490;23;20011;-87
2023/08/21 10:57:38;;;;;;;9.10;5.50;;;;;;;37.85;57.27;96752.38;6216402;23;20660;-86
2023/08/21 11:00:15;;;;;;;7.25;5.60;;;;;;;39.28;49.87;96755.00;6192402;23;20008;-88
2023/08/21 11:02:46;;;;;;;8.45;6.05;;;;;;;37.91;55.84;96758.56;6191977;23;20118;-87
2023/08/21 11:05:13;;;;;;;8.45;5.85;;;;;;;37.91;58.02;96745.63;6191947;23;20004;-86
2023/08/21 11:07:48;;;;;;;9.85;6.10;;;;;;;39.28;49.68;96749.50;6217396;23;20011;-87
2023/08/21 11:10:18;;;;;;;9.40;5.93;;;;;;;38.38;54.95;96745.75;6192389;23;20052;-87
2023/08/21 11:13:07;;;;;;;9.95;6.03;;;;;;;39.30;53.96;96758.22;6192753;23;20013;-87
2023/08/21 11:15:33;;;;;;;6.97;5.53;;;;;;;39.35;48.67;96758.03;6193017;23;20008;-86
2023/08/21 11:18:02;;;;;;;7.78;5.20;;;;;;;37.99;59.40;96752.22;6217922;23;20012;-86
2023/08/21 11:20:41;;;;;;;9.82;6.57;;;;;;;39.00;50.67;96765.63;6192169;23;20008;-87
2023/08/21 11:23:07;;;;;;;9.75;5.50;;;;;;;40.17;48.00;96754.84;6190901;23;20015;-86
2023/08/21 11:25:40;;;;;;;13.70;6.13;;;;;;;40.70;47.76;96750.44;6217442;23;20012;-87
2023/08/21 11:28:06;;;;;;;9.55;6.13;;;;;;;38.86;48.80;96757.59;6192632;23;20035;-87
2023/08/21 11:30:35;;;;;;;7.78;5.60;;;;;;;39.06;52.13;96759.59;6190575;23;20011;-87
2023/08/21 11:33:13;;;;;;;9.43;5.90;;;;;;;39.17;48.74;96757.31;6192598;23;20050;-87
2023/08/21 11:35:40;;;;;;;7.63;5.93;;;;;;;39.74;49.44;96756.81;6217539;23;20474;-86
2023/08/21 11:38:06;;;;;;;8.85;6.15;;;;;;;39.60;49.69;96753.47;6192987;23;20011;-87
2023/08/21 11:40:35;;;;;;;9.80;6.13;;;;;;;40.29;47.90;96746.63;6191727;23;20004;-86
2023/08/21 11:43:01;;;;;;;7.90;5.60;;;;;;;38.99;52.30;96758.50;6191570;23;20087;-87
2023/08/21 11:45:27;;;;;;;8.98;6.00;;;;;;;38.71;52.84;96749.88;6191931;23;20082;-85
2023/08/21 11:47:56;;;;;;;6.95;5.47;;;;;;;38.02;57.94;96754.34;6216890;23;20027;-86
2023/08/21 11:50:21;;;;;;;9.88;5.88;;;;;;;37.96;62.93;96750.13;6191060;23;20032;-86
2023/08/21 11:52:54;;;;;;;10.32;5.45;;;;;;;38.20;60.23;96757.88;6216856;23;20007;-86
2023/08/21 11:55:20;;;;;;;6.82;5.07;;;;;;;38.38;58.21;96753.19;6218401;23;20008;-86
2023/08/21 11:57:48;;;;;;;9.02;5.95;;;;;;;37.20;66.18;96754.03;6192581;23;20004;-86
2023/08/21 12:00:14;;;;;;;6.35;5.47;;;;;;;38.31;59.61;96747.38;6192020;23;20091;-86
2023/08/21 12:02:40;;;;;;;9.75;5.50;;;;;;;38.60;53.46;96752.97;6192720;23;20008;-86
2023/08/21 12:05:06;;;;;;;9.45;6.10;;;;;;;39.07;54.34;96750.22;6193148;23;20016;-86
2023/08/21 12:07:34;;;;;;;7.53;5.38;;;;;;;39.06;51.67;96750.53;6192342;23;20753;-87
2023/08/21 12:10:00;;;;;;;12.23;6.25;;;;;;;39.73;51.80;96752.44;6191940;23;20016;-87
2023/08/21 12:12:25;;;;;;;8.82;5.57;;;;;;;39.50;48.97;96742.88;6192565;23;20007;-88
2023/08/21 12:14:51;;;;;;;7.80;5.43;;;;;;;39.97;50.60;96735.22;6193804;23;19996;-88
2023/08/21 12:17:21;;;;;;;8.13;6.20;;;;;;;40.79;50.17;96744.81;6192733;23;20062;-87
2023/08/21 12:19:46;;;;;;;9.13;6.32;;;;;;;40.34;47.36;96737.34;6190971;23;20008;-86
2023/08/21 12:22:12;;;;;;;7.38;5.45;;;;;;;39.75;47.89;96738.34;6191054;23;20683;-86
2023/08/21 12:24:37;;;;;;;7.85;5.70;;;;;;;39.91;48.31;96733.84;6192163;23;20019;-87
2023/08/21 12:27:04;;;;;;;9.55;6.03;;;;;;;40.18;48.12;96739.94;6217616;23;20015;-86
2023/08/21 12:29:29;;;;;;;8.90;6.38;;;;;;;40.68;45.82;96730.66;6193013;23;20004;-86
2023/08/21 12:31:55;;;;;;;11.00;5.80;;;;;;;40.23;48.82;96732.25;6190636;23;19999;-87
2023/08/21 12:34:23;;;;;;;9.55;6.32;;;;;;;41.76;44.81;96729.38;6192220;23;20015;-86
2023/08/21 12:36:50;;;;;;;9.05;6.28;;;;;;;40.95;45.87;96731.97;6191108;23;20014;-86
2023/08/21 12:39:16;;;;;;;8.65;6.25;;;;;;;41.67;42.68;96727.53;6189559;23;20300;-87
2023/08/21 12:41:42;;;;;;;9.95;5.72;;;;;;;40.88;44.34;96724.28;6191778;23;20004;-87
2023/08/21 12:44:08;;;;;;;8.10;5.90;;;;;;;40.88;45.07;96728.94;6191968;23;20011;-87
2023/08/21 12:46:35;;;;;;;8.65;6.32;;;;;;;40.88;43.43;96726.19;6216548;23;20056;-87
2023/08/21 12:49:01;;;;;;;9.25;5.88;;;;;;;41.08;44.17;96725.31;6217789;23;20063;-88
2023/08/21 12:51:28;;;;;;;9.38;6.20;;;;;;;40.89;44.94;96725.88;6191957;23;20007;-87
2023/08/21 12:54:19;;;;;;;8.77;5.70;;;;;;;40.43;46.59;96722.31;6193217;23;20015;-92
2023/08/21 12:56:45;;;;;;;7.60;6.67;;;;;;;40.50;49.58;96724.53;6182084;23;20687;-86
2023/08/21 12:59:10;;;;;;;10.80;6.80;;;;;;;40.32;47.86;96715.66;6190598;23;20417;-87
2023/08/21 13:01:37;;;;;;;7.03;5.88;;;;;;;40.73;47.50;96717.47;6191383;23;20014;-86
2023/08/21 13:04:03;;;;;;;8.65;6.18;;;;;;;40.55;51.16;96718.81;6191909;23;20003;-87
2023/08/21 13:06:28;;;;;;;8.60;6.25;;;;;;;40.48;46.59;96708.34;6217351;23;20452;-87
2023/08/21 13:08:54;;;;;;;7.40;5.57;;;;;;;40.42;49.34;96706.94;6192727;23;20004;-87
2023/08/21 13:11:23;;;;;;;10.45;6.95;;;;;;;39.87;49.51;96708.09;6192400;23;20050;-87
2023/08/21 13:13:49;;;;;;;9.70;6.43;;;;;;;40.47;51.40;96705.91;6217188;23;20000;-87
2023/08/21 13:16:19;;;;;;;8.57;5.97;;;;;;;40.35;51.50;96695.69;6191264;23;20061;-87
2023/08/21 13:18:45;;;;;;;8.35;6.30;;;;;;;40.32;54.46;96703.81;6191717;23;20008;-87
2023/08/21 13:21:17;;;;;;;9.55;6.43;;;;;;;39.70;52.24;96698.00;6190359;23;20003;-87
2023/08/21 13:23:42;;;;;;;7.75;6.40;;;;;;;38.75;59.19;96704.09;6191613;23;20008;-87
2023/08/21 13:26:08;;;;;;;9.23;6.40;;;;;;;39.56;52.33;96695.53;6191269;23;20012;-87
2023/08/21 13:28:38;;;;;;;7.65;6.25;;;;;;;39.68;52.29;96699.50;6216308;23;20003;-87
2023/08/21 13:31:05;;;;;;;11.73;6.53;;;;;;;40.14;50.22;96694.88;6190027;23;20004;-87
2023/08/21 13:34:03;;;;;;;9.30;6.40;;;;;;;39.59;55.99;96686.63;6191177;23;19996;-87
2023/08/21 13:36:29;;;;;;;11.35;6.68;;;;;;;40.71;50.42;96685.84;6190998;23;20548;-86
2023/08/21 13:38:54;;;;;;;8.95;6.38;;;;;;;40.47;47.90;96692.94;6191664;23;20012;-87
2023/08/21 13:41:20;;;;;;;9.93;6.13;;;;;;;40.01;45.36;96681.09;6190439;23;20019;-86
2023/08/21 13:43:45;;;;;;;8.52;6.15;;;;;;;39.74;47.35;96684.41;6216152;23;20008;-85
2023/08/21 13:46:15;;;;;;;7.38;5.85;;;;;;;40.03;47.64;96675.22;6190639;23;20003;-87
2023/08/21 13:48:40;;;;;;;10.57;6.28;;;;;;;39.65;49.21;96676.22;6190772;23;20026;-85
2023/08/21 13:51:06;;;;;;;8.75;7.45;;;;;;;39.17;49.08;96680.28;6189547;23;20000;-85
2023/08/21 13:53:31;;;;;;;10.57;6.50;;;;;;;39.42;51.54;96680.44;6216159;23;20000;-87
2023/08/21 13:56:03;;;;;;;9.45;6.38;;;;;;;39.01;55.76;96674.53;6192052;23;20012;-87
2023/08/21 13:58:29;;;;;;;11.10;6.85;;;;;;;39.31;54.31;96680.03;6217472;23;20010;-88
2023/08/21 14:00:57;;;;;;;10.85;6.45;;;;;;;39.49;53.29;96659.50;6190234;23;20004;-88
2023/08/21 14:03:42;;;;;;;10.80;6.70;;;;;;;39.25;53.08;96667.59;6191821;23;20015;-87
2023/08/21 14:06:11;;;;;;;9.27;6.25;;;;;;;39.95;50.84;96660.41;6217142;23;20928;-88
2023/08/21 14:08:37;;;;;;;10.93;6.20;;;;;;;39.49;50.86;96662.25;6191986;23;20007;-87
2023/08/21 14:11:03;;;;;;;9.18;6.03;;;;;;;39.55;48.68;96663.66;6191551;23;20186;-88
2023/08/21 14:13:29;;;;;;;7.80;5.80;;;;;;;39.81;48.39;96655.22;6194235;23;20391;-87
2023/08/21 14:15:56;;;;;;;8.35;6.65;;;;;;;39.39;49.93;96651.66;6193070;23;20518;-88
2023/08/21 14:18:26;;;;;;;8.18;6.22;;;;;;;39.95;51.54;96654.09;6192794;23;19996;-87
2023/08/21 14:20:52;;;;;;;8.32;6.32;;;;;;;38.87;54.82;96658.28;6191809;23;20008;-88
2023/08/21 14:23:21;;;;;;;10.10;6.43;;;;;;;39.35;55.36;96650.72;6191860;23;20029;-87
2023/08/21 14:25:47;;;;;;;8.00;6.32;;;;;;;39.49;53.65;96650.44;6191542;23;20004;-87
2023/08/21 14:28:13;;;;;;;9.30;6.32;;;;;;;38.34;54.26;96648.59;6217512;23;20109;-88
2023/08/21 14:30:39;;;;;;;7.68;5.97;;;;;;;38.89;51.93;96650.50;6215431;23;20436;-87
2023/08/21 14:33:04;;;;;;;9.35;5.82;;;;;;;38.77;55.66;96646.81;6191614;23;20000;-88
2023/08/21 14:35:30;;;;;;;9.15;5.97;;;;;;;38.44;56.71;96652.97;6192877;23;20015;-87
2023/08/21 14:37:56;;;;;;;7.65;5.60;;;;;;;39.00;50.56;96648.16;6193523;23;20297;-87
2023/08/21 14:40:21;;;;;;;7.93;5.55;;;;;;;38.41;52.74;96653.63;6195105;23;20011;-88
2023/08/21 14:42:49;;;;;;;9.90;5.28;;;;;;;38.72;48.10;96642.31;6192653;23;20625;-87
2023/08/21 14:45:18;;;;;;;10.80;5.32;;;;;;;38.36;46.95;96645.53;6192781;23;20008;-87
2023/08/21 14:47:43;;;;;;;9.90;5.28;;;;;;;38.51;47.42;96630.47;6194947;23;20008;-87
2023/08/21 14:50:09;;;;;;;12.07;6.47;;;;;;;38.25;49.67;96636.84;6192447;23;20085;-85
2023/08/21 14:52:35;;;;;;;9.30;5.50;;;;;;;38.14;53.73;96635.59;6195194;23;20000;-87
2023/08/21 14:55:00;;;;;;;8.25;6.18;;;;;;;38.14;54.87;96633.66;6191286;23;20004;-87
2023/08/21 14:57:26;;;;;;;11.95;6.05;;;;;;;37.56;59.00;96632.28;6192255;23;19996;-85
2023/08/21 14:59:51;;;;;;;8.70;6.15;;;;;;;37.19;61.77;96626.28;6217815;23;20000;-85
2023/08/21 15:02:17;;;;;;;9.02;6.45;;;;;;;37.47;61.59;96636.97;6217915;23;20004;-87
2023/08/21 15:04:43;;;;;;;11.35;6.07;;;;;;;37.63;60.61;96627.13;6193178;23;20018;-87
2023/08/21 15:07:09;;;;;;;10.55;6.40;;;;;;;37.43;56.46;96635.97;6218758;23;20000;-87
2023/08/21 15:09:34;;;;;;;10.27;5.57;;;;;;;37.65;56.86;96629.50;6219385;23;20485;-86
2023/08/21 15:12:00;;;;;;;8.35;5.80;;;;;;;36.94;65.04;96633.31;6192483;23;20000;-85
2023/08/21 15:14:31;;;;;;;9.90;5.95;;;;;;;36.93;67.02;96623.47;6216394;23;20103;-85
2023/08/21 15:16:56;;;;;;;9.20;5.78;;;;;;;36.89;64.63;96617.03;6216113;23;20008;-84
2023/08/21 15:19:22;;;;;;;8.55;6.32;;;;;;;37.40;60.38;96625.66;6243776;23;19996;-85
2023/08/21 15:21:47;;;;;;;9.18;6.05;;;;;;;36.85;65.01;96620.72;6190954;23;20062;-85
2023/08/21 15:24:13;;;;;;;7.82;6.10;;;;;;;36.54;65.21;96619.66;6191624;23;20018;-85
2023/08/21 15:26:39;;;;;;;9.18;5.90;;;;;;;36.83;64.49;96626.53;6191498;23;19996;-84
2023/08/21 15:29:04;;;;;;;9.45;5.53;;;;;;;37.78;60.43;96619.50;6191319;23;20004;-84
2023/08/21 15:31:30;;;;;;;9.50;6.85;;;;;;;37.22;61.69;96614.66;6216157;23;20007;-86
2023/08/21 15:33:55;;;;;;;8.27;5.60;;;;;;;37.55;59.46;96616.13;6191082;23;20004;-86
2023/08/21 15:36:21;;;;;;;11.68;6.10;;;;;;;37.17;57.54;96608.53;6216678;23;20011;-84
2023/08/21 15:38:46;;;;;;;9.82;6.22;;;;;;;37.55;52.58;96610.66;6192080;23;20081;-86
2023/08/21 15:41:12;;;;;;;11.07;6.85;;;;;;;37.64;55.58;96611.44;6193207;23;20146;-90
2023/08/21 15:43:39;;;;;;;13.05;7.75;;;;;;;37.06;62.96;96610.78;6218346;23;20052;-86
2023/08/21 15:46:06;;;;;;;10.50;6.88;;;;;;;36.99;58.82;96605.78;6195168;23;20004;-86
2023/08/21 15:48:31;;;;;;;10.55;6.40;;;;;;;36.73;64.78;96608.44;6192741;23;20008;-86
2023/08/21 15:51:02;;;;;;;9.40;6.53;;;;;;;36.74;66.11;96607.31;6244256;23;20534;-86
2023/08/21 15:53:28;;;;;;;8.70;6.03;;;;;;;36.80;66.88;96603.28;6191922;23;20003;-86
2023/08/21 15:55:54;;;;;;;10.35;6.82;;;;;;;36.33;70.06;96604.91;6192115;23;20023;-87
2023/08/21 15:58:19;;;;;;;11.50;7.30;;;;;;;36.76;65.76;96596.03;6194591;23;20012;-87
2023/08/21 16:00:45;;;;;;;9.35;6.38;;;;;;;36.70;62.90;96600.06;6216472;23;20065;-87
2023/08/21 16:03:10;;;;;;;7.72;5.63;;;;;;;36.43;66.87;96593.66;6216647;23;20000;-86
2023/08/21 16:05:36;;;;;;;9.10;6.50;;;;;;;36.93;60.65;96590.56;6191849;23;20004;-86
2023/08/21 16:08:03;;;;;;;7.93;5.32;;;;;;;36.81;63.38;96588.44;6244136;23;20309;-85
2023/08/21 16:10:29;;;;;;;8.10;5.93;;;;;;;36.79;63.60;96587.97;6191516;23;20064;-86
2023/08/21 16:12:55;;;;;;;10.57;6.18;;;;;;;37.12;62.15;96582.06;6191659;23;20008;-85
2023/08/21 16:15:21;;;;;;;12.52;6.00;;;;;;;37.02;62.38;96582.38;6191657;23;20019;-86
2023/08/21 16:17:48;;;;;;;12.63;6.38;;;;;;;36.99;65.10;96585.75;6191607;23;20008;-86
2023/08/21 16:20:15;;;;;;;10.00;5.60;;;;;;;36.39;68.96;96586.38;6191643;23;20024;-86
2023/08/21 16:22:41;;;;;;;11.07;6.20;;;;;;;36.47;68.62;96582.88;6191702;23;20340;-84
2023/08/21 16:25:12;;;;;;;8.13;5.47;;;;;;;36.37;66.38;96575.75;6191940;23;20032;-85
2023/08/21 16:27:38;;;;;;;7.95;6.30;;;;;;;36.58;67.25;96581.47;6192373;23;20004;-86
2023/08/21 16:30:04;;;;;;;11.25;7.47;;;;;;;36.09;71.95;96577.91;6192158;23;20058;-86
2023/08/21 16:32:30;;;;;;;8.48;6.55;;;;;;;36.40;69.08;96580.59;6191197;23;20091;-86
2023/08/21 16:34:55;;;;;;;8.48;6.40;;;;;;;36.26;70.27;96571.69;6192070;23;20104;-86
2023/08/21 16:37:21;;;;;;;13.48;6.35;;;;;;;36.21;71.34;96578.09;6218558;23;20011;-86
2023/08/21 16:39:47;;;;;;;7.75;5.45;;;;;;;36.12;71.31;96582.75;6192991;23;20011;-86
2023/08/21 16:42:12;;;;;;;10.05;6.57;;;;;;;35.98;71.76;96580.06;6191740;23;20437;-84
2023/08/21 16:44:46;;;;;;;11.77;6.07;;;;;;;36.01;71.56;96582.19;6197006;23;20000;-86
2023/08/21 16:47:12;;;;;;;11.05;6.50;;;;;;;36.14;70.26;96577.75;6193166;23;20004;-85
2023/08/21 16:49:37;;;;;;;10.00;6.45;;;;;;;36.00;72.67;96580.56;6190952;23;20004;-84
2023/08/21 16:52:03;;;;;;;12.30;6.20;;;;;;;36.03;74.12;96579.16;6191582;23;20431;-84
2023/08/21 16:54:28;;;;;;;9.45;6.25;;;;;;;35.99;73.08;96573.47;6190797;23;20004;-84
2023/08/21 16:56:54;;;;;;;9.73;6.30;;;;;;;36.03;71.64;96582.69;6190643;23;20027;-85
2023/08/21 16:59:20;;;;;;;9.13;6.40;;;;;;;36.25;69.79;96575.53;6216684;23;20012;-85
2023/08/21 17:01:45;;;;;;;9.90;6.32;;;;;;;36.06;72.54;96579.34;6190193;23;20007;-84
2023/08/21 17:04:11;;;;;;;11.10;6.15;;;;;;;36.08;73.85;96579.00;6239241;23;20006;-84
2023/08/21 17:06:52;;;;;;;9.20;6.20;;;;;;;36.12;72.07;96577.28;6215861;23;20000;-85
2023/08/21 17:09:18;;;;;;;66.68;13.70;;;;;;;35.86;73.20;96579.84;6191277;23;20004;-85
2023/08/21 17:11:43;;;;;;;22.27;9.18;;;;;;;35.92;75.21;96572.28;6189960;23;20011;-85
2023/08/21 17:14:09;;;;;;;20.80;7.57;;;;;;;35.49;79.33;96578.31;6191894;23;20317;-84
2023/08/21 17:16:34;;;;;;;14.75;6.70;;;;;;;35.61;79.96;96573.09;6216173;23;20329;-83
2023/08/21 17:19:00;;;;;;;11.13;6.18;;;;;;;35.61;82.48;96578.56;6215747;23;20007;-85
2023/08/21 17:21:26;;;;;;;12.98;8.95;;;;;;;35.61;82.41;96573.91;6190454;23;20024;-84
2023/08/21 17:24:07;;;;;;;9.68;7.30;;;;;;;35.50;81.59;96574.44;6191021;23;20004;-84
2023/08/21 17:26:32;;;;;;;12.00;6.65;;;;;;;35.31;81.84;96575.47;6190621;23;20004;-84
2023/08/21 17:29:00;;;;;;;9.32;6.40;;;;;;;35.56;84.28;96586.91;6190138;23;20379;-83
2023/08/21 17:31:26;;;;;;;9.70;6.38;;;;;;;35.59;83.10;96578.88;6190331;23;20019;-83
2023/08/21 17:33:51;;;;;;;12.25;7.93;;;;;;;35.53;81.66;96577.41;6190896;23;19996;-83
2023/08/21 17:36:25;;;;;;;10.57;7.20;;;;;;;35.33;86.86;96575.13;6190374;23;20050;-83
2023/08/21 17:38:50;;;;;;;10.38;6.70;;;;;;;35.32;87.31;96585.28;6216215;23;20004;-83
2023/08/21 17:41:16;;;;;;;11.50;6.13;;;;;;;34.47;93.15;96578.63;6190356;23;20004;-83
2023/08/21 17:43:41;;;;;;;10.50;6.18;;;;;;;34.56;94.35;96582.28;6190829;23;20062;-84
2023/08/21 17:46:07;;;;;;;14.35;5.78;;;;;;;34.64;93.99;96583.47;6190835;23;20061;-84
2023/08/21 17:48:32;;;;;;;9.18;6.43;;;;;;;34.99;91.11;96589.31;6190346;23;20015;-84
2023/08/21 17:50:59;;;;;;;9.40;5.80;;;;;;;34.74;92.64;96586.00;6215495;23;20027;-84
2023/08/21 17:53:25;;;;;;;10.35;5.97;;;;;;;35.16;89.50;96579.34;6190881;23;19996;-84
2023/08/21 17:55:50;;;;;;;10.35;6.38;;;;;;;35.38;86.76;96591.41;6216486;23;20000;-84
2023/08/21 17:58:34;;;;;;;10.15;6.55;;;;;;;34.57;94.43;96583.91;6190937;23;20011;-84
2023/08/21 18:01:00;;;;;;;9.77;6.43;;;;;;;34.36;98.62;96583.47;6193465;23;20428;-83
2023/08/21 18:03:26;;;;;;;10.13;5.80;;;;;;;34.72;96.41;96589.03;6215571;23;20004;-84
2023/08/21 18:05:51;;;;;;;8.30;6.20;;;;;;;34.32;97.44;96587.94;6189429;23;20619;-83
2023/08/21 18:08:17;;;;;;;11.48;7.22;;;;;;;34.30;98.45;96590.16;6215716;23;20456;-84
2023/08/21 18:10:43;;;;;;;12.23;7.65;;;;;;;34.41;97.55;96596.25;6191146;23;20012;-84
2023/08/21 18:13:08;;;;;;;10.50;6.68;;;;;;;34.11;99.40;96587.53;6191438;23;20520;-84
2023/08/21 18:15:39;;;;;;;13.00;7.68;;;;;;;33.96;99.39;96590.50;6191087;23;20074;-86
2023/08/21 18:18:06;;;;;;;9.65;6.72;;;;;;;34.13;98.93;96590.75;6189443;23;20087;-83
2023/08/21 18:20:53;;;;;;;13.23;8.30;;;;;;;33.90;100.00;96589.78;6214811;23;20433;-82
2023/08/21 18:23:24;;;;;;;9.90;6.63;;;;;;;34.21;98.39;96591.97;6215339;23;20028;-82
2023/08/21 18:25:50;;;;;;;12.82;8.90;;;;;;;34.05;99.19;96598.84;6190638;23;20003;-82
2023/08/21 18:28:34;;;;;;;16.90;8.13;;;;;;;34.18;98.30;96592.59;6215770;23;20088;-82
2023/08/21 18:31:00;;;;;;;9.68;6.30;;;;;;;33.84;98.33;96599.19;6190184;23;20099;-82
2023/08/21 18:33:27;;;;;;;10.88;6.55;;;;;;;33.83;98.96;96592.09;6190322;23;20065;-83
2023/08/21 18:35:53;;;;;;;12.93;6.40;;;;;;;33.59;99.93;96602.34;6190684;23;20023;-82
2023/08/21 18:38:22;;;;;;;10.30;7.00;;;;;;;33.43;100.00;96599.81;6242938;23;20004;-83
2023/08/21 18:40:48;;;;;;;9.55;6.20;;;;;;;33.20;100.00;96598.81;6191320;23;20004;-84
2023/08/21 18:43:14;;;;;;;11.73;6.32;;;;;;;33.30;100.00;96600.56;6216803;23;20448;-82
2023/08/21 18:45:40;;;;;;;8.63;6.30;;;;;;;33.38;100.00;96607.28;6191002;23;20348;-83
2023/08/21 18:48:13;;;;;;;11.73;9.27;;;;;;;33.12;100.00;96607.66;6190921;23;20011;-83
2023/08/21 18:50:43;;;;;;;11.35;10.13;;;;;;;33.06;100.00;96601.47;6215087;23;20011;-82
2023/08/21 18:53:12;;;;;;;18.67;6.80;;;;;;;33.03;100.00;96606.69;6190212;23;20010;-80
2023/08/21 18:55:46;;;;;;;9.23;5.93;;;;;;;32.94;100.00;96609.25;6242379;23;20455;-83
2023/08/21 18:58:12;;;;;;;13.65;6.38;;;;;;;33.10;100.00;96612.59;6215128;23;20492;-83
2023/08/21 19:00:38;;;;;;;7.22;5.55;;;;;;;32.79;100.00;96617.63;6190560;23;20441;-82
2023/08/21 19:03:05;;;;;;;11.05;6.60;;;;;;;32.98;100.00;96617.69;6192852;23;20017;-82
2023/08/21 19:05:34;;;;;;;10.77;5.47;;;;;;;33.20;100.00;96617.06;6215317;23;20008;-82
2023/08/21 19:08:04;;;;;;;8.73;5.88;;;;;;;32.81;100.00;96623.59;6188841;23;20028;-82
2023/08/21 19:10:29;;;;;;;7.93;5.53;;;;;;;33.16;100.00;96616.84;6217099;23;19996;-81
2023/08/21 19:12:55;;;;;;;11.98;6.53;;;;;;;33.04;100.00;96622.75;6241691;23;20007;-82
2023/08/21 19:15:21;;;;;;;9.15;5.38;;;;;;;32.89;100.00;96622.94;6189133;23;20010;-82
2023/08/21 19:17:47;;;;;;;10.75;5.60;;;;;;;32.84;100.00;96623.00;6191667;23;20008;-81
2023/08/21 19:20:13;;;;;;;11.80;5.18;;;;;;;32.77;100.00;96625.28;6214232;23;20050;-81
2023/08/21 19:22:39;;;;;;;8.02;5.22;;;;;;;32.87;100.00;96630.59;6216202;23;20019;-82
2023/08/21 19:25:05;;;;;;;7.90;6.03;;;;;;;33.05;100.00;96624.38;6191342;23;20649;-82
2023/08/21 19:27:31;;;;;;;10.82;5.35;;;;;;;33.01;100.00;96630.72;6216639;23;20008;-82
2023/08/21 19:29:57;;;;;;;9.45;6.28;;;;;;;32.94;100.00;96620.16;6216015;23;20138;-82
2023/08/21 19:32:23;;;;;;;8.63;5.88;;;;;;;33.10;100.00;96615.34;6190142;23;20011;-82
2023/08/21 19:34:48;;;;;;;8.40;5.70;;;;;;;32.89;100.00;96622.94;6216636;23;20914;-82
2023/08/21 19:37:14;;;;;;;9.52;5.50;;;;;;;33.03;100.00;96615.69;6191893;23;20564;-82
2023/08/21 19:39:40;;;;;;;8.65;5.78;;;;;;;32.78;100.00;96613.28;6191396;23;20011;-82
2023/08/21 19:42:06;;;;;;;10.07;5.60;;;;;;;32.86;100.00;96618.91;6189883;23;20383;-82
2023/08/21 19:44:32;;;;;;;8.77;5.22;;;;;;;32.94;100.00;96620.16;6191647;23;20380;-81
2023/08/21 19:47:01;;;;;;;7.75;4.90;;;;;;;32.91;100.00;96612.56;6190815;23;20004;-82
2023/08/21 19:49:53;;;;;;;8.27;5.43;;;;;;;32.60;100.00;96614.88;6215320;23;20084;-84
2023/08/21 19:52:19;;;;;;;9.65;7.13;;;;;;;32.68;100.00;96627.84;6190492;23;20428;-84
2023/08/21 19:54:45;;;;;;;15.52;13.93;;;;;;;32.78;100.00;96621.44;6191595;23;20010;-84
2023/08/21 19:57:19;;;;;;;36.60;33.28;;;;;;;32.75;100.00;96616.59;6216597;23;20004;-86
2023/08/21 19:59:45;;;;;;;14.65;10.43;;;;;;;32.63;100.00;96619.75;6191421;23;20531;-80
2023/08/21 20:02:10;;;;;;;34.90;26.52;;;;;;;32.45;100.00;96618.56;6190168;23;20003;-83
2023/08/21 20:04:36;;;;;;;21.50;15.13;;;;;;;32.70;100.00;96617.47;6190854;23;20008;-80
2023/08/21 20:07:04;;;;;;;16.38;10.75;;;;;;;32.55;100.00;96607.56;6215245;23;20030;-81
2023/08/21 20:09:29;;;;;;;11.15;8.18;;;;;;;32.42;100.00;96608.25;6190742;23;20003;-80
2023/08/21 20:11:55;;;;;;;8.82;7.10;;;;;;;32.41;100.00;96617.50;6191341;23;20000;-80
2023/08/21 20:14:22;;;;;;;8.05;6.22;;;;;;;32.65;100.00;96617.53;6191263;23;20039;-80
2023/08/21 20:16:48;;;;;;;10.07;6.78;;;;;;;32.60;100.00;96618.41;6214516;23;20011;-80
2023/08/21 20:19:13;;;;;;;11.90;6.65;;;;;;;32.44;100.00;96619.69;6189652;23;20000;-81
2023/08/21 20:21:39;;;;;;;8.70;5.95;;;;;;;32.37;100.00;96627.38;6188781;23;20016;-80
2023/08/21 20:24:05;;;;;;;9.68;5.28;;;;;;;31.88;100.00;96621.03;6190404;23;20003;-80
2023/08/21 20:26:33;;;;;;;9.93;5.70;;;;;;;31.65;100.00;96627.19;6215335;23;20015;-80
2023/08/21 20:29:09;;;;;;;12.07;5.95;;;;;;;31.62;100.00;96633.19;6192098;23;20027;-80
2023/08/21 20:31:35;;;;;;;13.65;6.88;;;;;;;31.64;100.00;96634.56;6215888;23;20010;-80
2023/08/21 20:34:00;;;;;;;9.30;5.93;;;;;;;31.99;100.00;96627.19;6219017;23;19996;-80
2023/08/21 20:36:26;;;;;;;12.88;6.70;;;;;;;32.12;100.00;96621.06;6189097;23;20008;-80
2023/08/21 20:38:51;;;;;;;8.95;6.40;;;;;;;32.16;100.00;96633.03;6190087;23;20004;-80
2023/08/21 20:41:17;;;;;;;10.13;6.65;;;;;;;32.06;100.00;96633.13;6241601;23;20383;-81
2023/08/21 20:43:42;;;;;;;12.90;6.60;;;;;;;31.98;100.00;96627.50;6190886;23;20318;-81
2023/08/21 20:46:13;;;;;;;10.52;6.30;;;;;;;31.78;100.00;96628.47;6190880;23;20000;-80
2023/08/21 20:48:38;;;;;;;9.55;6.80;;;;;;;31.26;100.00;96629.94;6188737;23;20008;-80
2023/08/21 20:51:04;;;;;;;8.85;6.82;;;;;;;31.11;100.00;96634.34;6189810;23;20479;-80
2023/08/21 20:53:30;;;;;;;10.07;6.22;;;;;;;31.22;100.00;96633.22;6189088;23;20447;-80
2023/08/21 20:55:56;;;;;;;8.20;6.68;;;;;;;30.81;100.00;96629.91;6242089;23;19996;-80
2023/08/21 20:58:23;;;;;;;10.95;6.70;;;;;;;30.47;100.00;96627.84;6215326;23;20035;-81
2023/08/21 21:00:49;;;;;;;10.30;6.78;;;;;;;30.59;100.00;96622.09;6189404;23;20133;-80
2023/08/21 21:03:15;;;;;;;14.27;7.88;;;;;;;30.62;100.00;96628.84;6214693;23;20004;-80
2023/08/21 21:05:41;;;;;;;12.63;6.82;;;;;;;30.50;100.00;96626.47;6189791;23;20008;-80
2023/08/21 21:08:07;;;;;;;11.55;7.20;;;;;;;30.29;100.00;96634.69;6190881;23;20008;-80
2023/08/21 21:10:38;;;;;;;13.25;7.05;;;;;;;30.69;100.00;96627.50;6214974;23;19999;-81
2023/08/21 21:13:04;;;;;;;9.27;6.93;;;;;;;30.49;100.00;96620.25;6190160;23;20088;-80
2023/08/21 21:15:30;;;;;;;10.45;7.32;;;;;;;30.28;100.00;96626.81;6215283;23;20016;-81
2023/08/21 21:17:56;;;;;;;10.98;7.40;;;;;;;30.52;100.00;96627.84;6189989;23;20340;-80
2023/08/21 21:20:22;;;;;;;9.57;7.03;;;;;;;30.30;100.00;96621.94;6188554;23;20469;-81
2023/08/21 21:22:48;;;;;;;11.35;8.15;;;;;;;30.27;100.00;96627.91;6214447;23;20087;-80
2023/08/21 21:25:14;;;;;;;8.07;6.80;;;;;;;30.14;100.00;96634.69;6189946;23;20008;-80
2023/08/21 21:27:40;;;;;;;11.98;7.10;;;;;;;30.36;100.00;96628.97;6242262;23;20378;-80
2023/08/21 21:30:06;;;;;;;9.45;7.63;;;;;;;30.29;100.00;96634.69;6189206;23;20007;-80
2023/08/21 21:32:31;;;;;;;11.10;8.02;;;;;;;30.05;100.00;96637.16;6188936;23;20011;-80
2023/08/21 21:34:57;;;;;;;10.25;7.72;;;;;;;30.46;100.00;96628.13;6189430;23;20388;-81
2023/08/21 21:37:24;;;;;;;11.00;8.25;;;;;;;30.53;100.00;96620.50;6213541;23;20396;-80
2023/08/21 21:39:50;;;;;;;10.80;7.60;;;;;;;30.64;100.00;96619.34;6214868;23;20004;-80
2023/08/21 21:42:18;;;;;;;10.15;7.68;;;;;;;30.68;100.00;96614.19;6240534;23;20071;-80
2023/08/21 21:44:43;;;;;;;11.63;8.15;;;;;;;30.36;100.00;96620.03;6189835;23;20008;-81
2023/08/21 21:47:09;;;;;;;14.00;7.65;;;;;;;30.41;100.00;96617.28;6188950;23;20000;-80
2023/08/21 21:49:34;;;;;;;9.85;8.05;;;;;;;30.21;100.00;96627.09;6189275;23;20008;-80
2023/08/21 21:52:00;;;;;;;15.25;10.30;;;;;;;30.10;100.00;96630.09;6212944;23;20004;-80
2023/08/21 21:54:26;;;;;;;13.57;9.48;;;;;;;30.20;100.00;96630.09;6189338;23;20386;-80
2023/08/21 21:56:51;;;;;;;13.57;9.55;;;;;;;30.31;100.00;96615.41;6214325;23;20015;-80